IL94 weather

Hoblit Farms Airport
Atlanta, Illinois, United States

Public forecast

Using degrees Fahrenheit for public forecast. Weather courtesy of forecast.io.

Closest aviation weather report (METAR) to Hoblit Farms Airport

Closest report is Logan County Airport, 5.9 nm (10.8 km) SW. Retrieved 2020/05/25 10:35 UTC (25 seconds ago):

KAAA 251035Z AUTO 00000KT 7SM CLR 19/18 A2994 RMK AO2 T01900176

Closest aviation forecast (TAF) to Hoblit Farms Airport

Closest forecast is Central Illinois Regional Airport at Bloomington-Normal, 21.2 nm (39.3 km) NE. Retrieved 2020/05/25 06:22 UTC (4 hours ago):

TAF KBMI 250520Z 2506/2606 16013KT 6SM -TSRA SCT015 BKN035CB FM250730 18010KT P6SM OVC100 FM251300 19008KT P6SM BKN100 FM251900 20012KT P6SM VCTS SCT035CB BKN200 FM260000 18008KT P6SM SCT035 BKN200